createdAt,value
2018-10-21T00:00:43.532Z,102811.20
2018-10-21T00:03:13.527Z,102812.13
2018-10-21T00:05:43.416Z,102825.69
2018-10-21T00:08:13.388Z,102821.39
2018-10-21T00:10:43.400Z,102815.63
2018-10-21T00:13:13.197Z,102811.90
2018-10-21T00:15:43.186Z,102816.27
2018-10-21T00:18:13.057Z,102811.88
2018-10-21T00:20:42.882Z,102813.87
2018-10-21T00:23:12.662Z,102810.07
2018-10-21T00:25:42.640Z,102820.30
2018-10-21T00:28:12.419Z,102816.94
2018-10-21T00:30:42.757Z,102812.80
2018-10-21T00:33:12.844Z,102814.50
2018-10-21T00:35:42.749Z,102818.61
2018-10-21T00:38:12.602Z,102816.83
2018-10-21T00:40:42.334Z,102820.20
2018-10-21T00:43:12.391Z,102822.47
2018-10-21T00:45:42.271Z,102821.55
2018-10-21T00:48:12.552Z,102817.85
2018-10-21T00:50:42.369Z,102809.20
2018-10-21T00:53:12.460Z,102806.77
2018-10-21T00:55:42.249Z,102794.27
2018-10-21T00:58:12.340Z,102797.45
2018-10-21T01:00:42.735Z,102800.12
2018-10-21T01:03:12.712Z,102796.11
2018-10-21T01:05:42.398Z,102794.23
2018-10-21T01:08:12.372Z,102790.41
2018-10-21T01:10:42.325Z,102802.83
2018-10-21T01:13:12.341Z,102802.80
2018-10-21T01:15:42.287Z,102800.78
2018-10-21T01:18:12.045Z,102807.69
2018-10-21T01:20:41.895Z,102810.80
2018-10-21T01:23:11.720Z,102815.31
2018-10-21T01:25:41.660Z,102814.97
2018-10-21T01:28:11.524Z,102818.67
2018-10-21T01:30:41.506Z,102805.55
2018-10-21T01:33:11.439Z,102805.77
2018-10-21T01:35:41.258Z,102812.28
2018-10-21T01:38:11.282Z,102816.68
2018-10-21T01:40:42.203Z,102818.53
2018-10-21T01:43:14.177Z,102810.89
2018-10-21T01:45:44.044Z,102820.13
2018-10-21T01:48:15.215Z,102814.47
2018-10-21T01:50:45.075Z,102810.61
2018-10-21T01:53:15.897Z,102808.30
2018-10-21T01:55:45.829Z,102809.25
2018-10-21T01:58:15.600Z,102807.13
2018-10-21T02:00:45.614Z,102813.50
2018-10-21T02:03:15.980Z,102816.72
2018-10-21T02:05:46.548Z,102816.12
2018-10-21T02:08:16.657Z,102819.59
2018-10-21T02:10:46.532Z,102809.80
2018-10-21T02:13:16.561Z,102811.20
2018-10-21T02:15:46.438Z,102810.09
2018-10-21T02:18:16.343Z,102811.96
2018-10-21T02:20:46.464Z,102806.70
2018-10-21T02:23:16.293Z,102811.52
2018-10-21T02:25:46.288Z,102816.45
2018-10-21T02:28:16.141Z,102808.61
2018-10-21T02:30:45.909Z,102808.33
2018-10-21T02:33:15.851Z,102810.55
2018-10-21T02:35:45.546Z,102806.61
2018-10-21T02:38:15.631Z,102810.48
2018-10-21T02:41:30.594Z,102803.02
2018-10-21T02:44:00.616Z,102796.64
2018-10-21T02:46:30.805Z,102792.51
2018-10-21T02:49:02.095Z,102787.52
2018-10-21T02:51:31.836Z,102787.42
2018-10-21T02:54:01.671Z,102781.89
2018-10-21T02:56:31.484Z,102782.04
2018-10-21T02:59:01.374Z,102781.36
2018-10-21T03:01:31.230Z,102774.56
2018-10-21T03:04:01.281Z,102768.44
2018-10-21T03:06:31.036Z,102769.14
2018-10-21T03:09:00.845Z,102763.52
2018-10-21T03:11:30.777Z,102762.92
2018-10-21T03:14:00.532Z,102762.73
2018-10-21T03:16:30.684Z,102765.17
2018-10-21T03:19:01.578Z,102763.91
2018-10-21T03:21:31.655Z,102763.62
2018-10-21T03:24:01.576Z,102760.69
2018-10-21T03:26:31.592Z,102765.43
2018-10-21T03:29:01.512Z,102765.55
2018-10-21T03:31:31.335Z,102770.58
2018-10-21T03:34:01.386Z,102769.31
2018-10-21T03:36:31.179Z,102761.02
2018-10-21T03:39:01.105Z,102766.11
2018-10-21T03:41:30.861Z,102764.06
2018-10-21T03:44:00.826Z,102765.60
2018-10-21T03:46:30.782Z,102759.20
2018-10-21T03:49:00.733Z,102758.75
2018-10-21T03:51:30.554Z,102758.58
2018-10-21T03:54:00.589Z,102755.00
2018-10-21T03:56:30.545Z,102753.84
2018-10-21T03:59:01.400Z,102754.73
2018-10-21T04:01:31.180Z,102754.61
2018-10-21T04:04:01.196Z,102751.69
2018-10-21T04:06:31.035Z,102758.05
2018-10-21T04:09:01.002Z,102756.22
2018-10-21T04:11:30.973Z,102756.34
2018-10-21T04:14:00.772Z,102757.64
2018-10-21T04:16:30.736Z,102763.66
2018-10-21T04:19:00.605Z,102761.94
2018-10-21T04:21:30.767Z,102752.95
2018-10-21T04:24:00.533Z,102749.30
2018-10-21T04:26:30.569Z,102751.30
2018-10-21T04:29:00.529Z,102752.89
2018-10-21T04:31:30.246Z,102759.42
2018-10-21T04:34:00.165Z,102761.61
2018-10-21T04:36:31.676Z,102758.62
2018-10-21T04:39:45.548Z,102755.83
2018-10-21T04:42:15.312Z,102750.07
2018-10-21T04:44:45.336Z,102747.09
2018-10-21T04:47:15.376Z,102739.55
2018-10-21T04:49:45.181Z,102737.89
2018-10-21T04:52:15.278Z,102734.09
2018-10-21T04:54:45.019Z,102729.28
2018-10-21T04:57:14.782Z,102736.16
2018-10-21T04:59:44.567Z,102731.34
2018-10-21T05:02:14.377Z,102734.22
2018-10-21T05:04:44.126Z,102732.67
2018-10-21T05:07:14.000Z,102728.04
2018-10-21T05:09:43.801Z,102735.94
2018-10-21T05:12:13.772Z,102740.67
2018-10-21T05:14:43.589Z,102735.27
2018-10-21T05:17:13.548Z,102738.39
2018-10-21T05:19:43.426Z,102736.28
2018-10-21T05:22:13.312Z,102733.35
2018-10-21T05:24:43.029Z,102731.34
2018-10-21T05:27:13.010Z,102730.09
2018-10-21T05:29:43.066Z,102727.66
2018-10-21T05:32:12.930Z,102724.40
2018-10-21T05:34:42.986Z,102728.16
2018-10-21T05:37:12.852Z,102729.05
2018-10-21T05:39:42.905Z,102730.09
2018-10-21T05:42:12.722Z,102727.77
2018-10-21T05:44:42.598Z,102727.72
2018-10-21T05:47:12.548Z,102737.64
2018-10-21T05:49:42.248Z,102736.41
2018-10-21T05:52:12.148Z,102736.77
2018-10-21T05:54:43.206Z,102744.83
2018-10-21T05:57:13.294Z,102739.83
2018-10-21T05:59:43.631Z,102742.98
2018-10-21T06:02:13.537Z,102738.93
2018-10-21T06:04:43.494Z,102743.08
2018-10-21T06:07:13.396Z,102743.05
2018-10-21T06:09:43.320Z,102740.89
2018-10-21T06:12:13.152Z,102737.81
2018-10-21T06:14:42.977Z,102732.50
2018-10-21T06:17:14.764Z,102735.15
2018-10-21T06:19:49.473Z,102736.11
2018-10-21T06:22:19.433Z,102733.24
2018-10-21T06:24:49.374Z,102735.70
2018-10-21T06:27:19.215Z,102732.91
2018-10-21T06:29:49.075Z,102741.56
2018-10-21T06:32:18.974Z,102739.32
2018-10-21T06:34:49.138Z,102740.14
2018-10-21T06:37:18.930Z,102746.12
2018-10-21T06:39:48.787Z,102743.12
2018-10-21T06:42:18.596Z,102747.78
2018-10-21T06:44:48.656Z,102750.97
2018-10-21T06:47:18.610Z,102747.66
2018-10-21T06:49:48.602Z,102756.00
2018-10-21T06:52:18.555Z,102748.33
2018-10-21T06:54:48.596Z,102753.52
2018-10-21T06:57:18.625Z,102749.61
2018-10-21T06:59:48.555Z,102755.97
2018-10-21T07:02:18.389Z,102756.24
2018-10-21T07:04:48.337Z,102765.54
2018-10-21T07:07:18.224Z,102759.09
2018-10-21T07:09:48.157Z,102753.38
2018-10-21T07:12:18.013Z,102761.50
2018-10-21T07:14:48.089Z,102761.20
2018-10-21T07:17:17.887Z,102760.12
2018-10-21T07:19:47.848Z,102763.22
2018-10-21T07:22:18.031Z,102766.78
2018-10-21T07:24:47.791Z,102766.99
2018-10-21T07:27:17.709Z,102765.81
2018-10-21T07:29:48.101Z,102764.86
2018-10-21T07:32:18.236Z,102761.67
2018-10-21T07:34:48.289Z,102767.45
2018-10-21T07:37:18.347Z,102767.88
2018-10-21T07:39:48.198Z,102766.27
2018-10-21T07:42:18.196Z,102760.12
2018-10-21T07:44:48.385Z,102766.09
2018-10-21T07:47:18.438Z,102768.15
2018-10-21T07:49:48.397Z,102772.41
2018-10-21T07:52:18.132Z,102771.22
2018-10-21T07:54:48.005Z,102779.38
2018-10-21T07:57:18.956Z,102776.89
2018-10-21T07:59:49.475Z,102777.16
2018-10-21T08:02:19.375Z,102783.03
2018-10-21T08:04:49.351Z,102780.12
2018-10-21T08:07:35.849Z,102780.41
2018-10-21T08:10:05.993Z,102780.61
2018-10-21T08:12:35.941Z,102775.53
2018-10-21T08:15:06.194Z,102780.00
2018-10-21T08:17:36.005Z,102780.70
2018-10-21T08:20:06.700Z,102778.63
2018-10-21T08:22:36.701Z,102781.17
2018-10-21T08:25:07.045Z,102775.22
2018-10-21T08:27:36.926Z,102779.36
2018-10-21T08:30:07.103Z,102788.63
2018-10-21T08:32:36.940Z,102787.17
2018-10-21T08:35:07.709Z,102785.03
2018-10-21T08:37:37.584Z,102781.89
2018-10-21T08:40:08.085Z,102788.48
2018-10-21T08:42:37.980Z,102788.94
2018-10-21T08:45:07.846Z,102782.23
2018-10-21T08:47:37.803Z,102782.43
2018-10-21T08:50:08.235Z,102782.05
2018-10-21T08:52:38.080Z,102776.23
2018-10-21T08:55:09.115Z,102781.61
2018-10-21T08:57:39.213Z,102784.36
2018-10-21T09:00:13.004Z,102783.30
2018-10-21T09:02:43.365Z,102783.88
2018-10-21T09:05:14.536Z,102778.90
2018-10-21T09:07:44.912Z,102775.64
2018-10-21T09:10:16.244Z,102779.40
2018-10-21T09:12:46.013Z,102778.45
2018-10-21T09:15:18.105Z,102779.87
2018-10-21T09:17:48.269Z,102786.13
2018-10-21T09:20:19.304Z,102781.11
2018-10-21T09:22:49.164Z,102783.10
2018-10-21T09:25:19.119Z,102781.27
2018-10-21T09:27:49.094Z,102782.98
2018-10-21T09:30:19.153Z,102779.32
2018-10-21T09:32:49.160Z,102781.80
2018-10-21T09:35:19.670Z,102774.00
2018-10-21T09:37:50.103Z,102774.19
2018-10-21T09:40:21.004Z,102772.46
2018-10-21T09:42:51.093Z,102779.54
2018-10-21T09:45:21.481Z,102775.60
2018-10-21T09:47:51.413Z,102765.53
2018-10-21T09:50:21.341Z,102769.88
2018-10-21T09:52:51.171Z,102765.00
2018-10-21T09:55:22.304Z,102766.53
2018-10-21T09:57:52.274Z,102763.97
2018-10-21T10:00:27.086Z,102762.70
2018-10-21T10:03:02.178Z,102758.95
2018-10-21T10:05:32.271Z,102758.49
2018-10-21T10:08:02.118Z,102748.17
2018-10-21T10:10:32.015Z,102750.95
2018-10-21T10:13:02.018Z,102745.92
2018-10-21T10:15:31.893Z,102742.22
2018-10-21T10:18:01.923Z,102740.83
2018-10-21T10:20:31.827Z,102729.81
2018-10-21T10:23:01.721Z,102732.28
2018-10-21T10:25:31.646Z,102729.86
2018-10-21T10:28:02.038Z,102731.50
2018-10-21T10:30:32.068Z,102722.14
2018-10-21T10:33:01.788Z,102724.86
2018-10-21T10:35:31.838Z,102722.19
2018-10-21T10:38:02.196Z,102724.98
2018-10-21T10:40:32.129Z,102718.56
2018-10-21T10:43:02.140Z,102716.23
2018-10-21T10:45:32.020Z,102712.50
2018-10-21T10:48:01.899Z,102708.00
2018-10-21T10:50:31.906Z,102705.06
2018-10-21T10:53:01.931Z,102703.77
2018-10-21T10:55:36.801Z,102695.77
2018-10-21T10:58:06.917Z,102695.24
2018-10-21T11:00:36.740Z,102690.41
2018-10-21T11:03:06.796Z,102684.06
2018-10-21T11:05:36.669Z,102684.09
2018-10-21T11:08:07.145Z,102681.73
2018-10-21T11:10:37.153Z,102681.22
2018-10-21T11:13:07.119Z,102673.44
2018-10-21T11:15:37.389Z,102674.78
2018-10-21T11:18:07.894Z,102669.12
2018-10-21T11:20:37.711Z,102664.58
2018-10-21T11:23:07.834Z,102664.58
2018-10-21T11:25:37.720Z,102658.73
2018-10-21T11:28:07.804Z,102652.34
2018-10-21T11:30:37.786Z,102648.38
2018-10-21T11:33:08.373Z,102647.58
2018-10-21T11:35:39.017Z,102648.09
2018-10-21T11:38:08.928Z,102641.19
2018-10-21T11:40:38.765Z,102639.31
2018-10-21T11:43:08.893Z,102639.03
2018-10-21T11:45:38.829Z,102630.23
2018-10-21T11:48:08.917Z,102628.09
2018-10-21T11:50:38.859Z,102630.48
2018-10-21T11:53:08.745Z,102622.73
2018-10-21T11:55:39.884Z,102616.58
2018-10-21T11:58:14.447Z,102616.30
2018-10-21T12:00:45.935Z,102613.91
2018-10-21T12:03:15.708Z,102614.98
2018-10-21T12:05:45.521Z,102619.02
2018-10-21T12:08:15.575Z,102606.13
2018-10-21T12:10:45.541Z,102604.79
2018-10-21T12:13:15.748Z,102607.22
2018-10-21T12:15:45.785Z,102602.40
2018-10-21T12:18:15.611Z,102597.05
2018-10-21T12:20:45.692Z,102594.08
2018-10-21T12:23:15.865Z,102596.27
2018-10-21T12:25:45.894Z,102593.04
2018-10-21T12:28:16.034Z,102587.68
2018-10-21T12:30:46.054Z,102587.41
2018-10-21T12:33:16.505Z,102590.36
2018-10-21T12:35:46.398Z,102576.36
2018-10-21T12:38:16.592Z,102576.05
2018-10-21T12:40:46.539Z,102571.19
2018-10-21T12:43:16.518Z,102578.92
2018-10-21T12:45:46.570Z,102569.49
2018-10-21T12:48:16.456Z,102565.72
2018-10-21T12:50:46.646Z,102567.23
2018-10-21T12:53:16.813Z,102561.27
2018-10-21T12:55:47.713Z,102559.30
2018-10-21T12:58:18.225Z,102558.30
2018-10-21T13:00:48.344Z,102551.48
2018-10-21T13:03:18.386Z,102549.98
2018-10-21T13:05:48.434Z,102539.25
2018-10-21T13:08:18.626Z,102534.63
2018-10-21T13:10:48.693Z,102537.73
2018-10-21T13:13:18.600Z,102539.02
2018-10-21T13:15:48.692Z,102542.12
2018-10-21T13:18:18.887Z,102541.45
2018-10-21T13:20:48.891Z,102540.62
2018-10-21T13:23:18.870Z,102536.89
2018-10-21T13:25:48.940Z,102536.89
2018-10-21T13:28:19.314Z,102529.42
2018-10-21T13:30:49.093Z,102525.88
2018-10-21T13:33:19.325Z,102529.03
2018-10-21T13:35:49.361Z,102524.38
2018-10-21T13:38:19.761Z,102522.01
2018-10-21T13:40:49.897Z,102520.11
2018-10-21T13:43:19.879Z,102510.73
2018-10-21T13:45:49.751Z,102516.30
2018-10-21T13:48:19.889Z,102507.95
2018-10-21T13:50:49.934Z,102504.97
2018-10-21T13:53:19.868Z,102502.88
2018-10-21T13:55:49.788Z,102500.92
2018-10-21T13:58:19.740Z,102500.52
2018-10-21T14:00:49.720Z,102492.67
2018-10-21T14:03:19.747Z,102490.44
2018-10-21T14:05:49.698Z,102486.48
2018-10-21T14:08:19.491Z,102485.45
2018-10-21T14:10:49.540Z,102483.15
2018-10-21T14:13:19.541Z,102479.43
2018-10-21T14:15:49.517Z,102475.93
2018-10-21T14:18:19.491Z,102474.39
2018-10-21T14:20:49.574Z,102478.17
2018-10-21T14:23:19.528Z,102477.16
2018-10-21T14:25:49.466Z,102471.50
2018-10-21T14:28:19.437Z,102469.34
2018-10-21T14:30:49.364Z,102469.70
2018-10-21T14:33:19.479Z,102464.86
2018-10-21T14:35:49.668Z,102468.34
2018-10-21T14:38:19.585Z,102456.28
2018-10-21T14:40:49.433Z,102457.63
2018-10-21T14:43:19.393Z,102456.56
2018-10-21T14:45:49.403Z,102457.67
2018-10-21T14:48:19.478Z,102454.98
2018-10-21T14:50:49.291Z,102450.12
2018-10-21T14:53:19.204Z,102445.05
2018-10-21T14:55:49.375Z,102437.01
2018-10-21T14:58:19.488Z,102447.50
2018-10-21T15:00:49.389Z,102439.99
2018-10-21T15:03:19.506Z,102443.24
2018-10-21T15:05:49.403Z,102438.14
2018-10-21T15:08:19.550Z,102438.40
2018-10-21T15:10:49.559Z,102435.75
2018-10-21T15:13:19.584Z,102433.89
2018-10-21T15:15:49.387Z,102433.61
2018-10-21T15:18:19.567Z,102426.37
2018-10-21T15:20:49.365Z,102430.14
2018-10-21T15:23:19.258Z,102425.55
2018-10-21T15:25:49.252Z,102425.28
2018-10-21T15:28:19.814Z,102428.79
2018-10-21T15:30:49.865Z,102424.77
2018-10-21T15:33:19.828Z,102425.04
2018-10-21T15:35:50.145Z,102430.39
2018-10-21T15:38:20.223Z,102425.32
2018-10-21T15:40:50.090Z,102421.30
2018-10-21T15:43:20.033Z,102418.89
2018-10-21T15:45:49.917Z,102417.80
2018-10-21T15:48:19.841Z,102418.36
2018-10-21T15:50:49.625Z,102411.91
2018-10-21T15:53:19.585Z,102413.80
2018-10-21T15:55:49.777Z,102410.56
2018-10-21T15:58:19.629Z,102409.77
2018-10-21T16:00:49.666Z,102408.96
2018-10-21T16:03:19.561Z,102410.32
2018-10-21T16:05:49.566Z,102409.23
2018-10-21T16:08:19.673Z,102414.88
2018-10-21T16:10:49.760Z,102416.50
2018-10-21T16:13:19.540Z,102411.91
2018-10-21T16:15:49.705Z,102414.34
2018-10-21T16:18:19.758Z,102408.42
2018-10-21T16:20:49.892Z,102412.97
2018-10-21T16:23:19.793Z,102414.81
2018-10-21T16:25:49.703Z,102411.28
2018-10-21T16:28:19.528Z,102411.81
2018-10-21T16:30:49.292Z,102405.89
2018-10-21T16:33:19.101Z,102404.25
2018-10-21T16:35:49.167Z,102400.22
2018-10-21T16:38:18.986Z,102403.70
2018-10-21T16:40:49.122Z,102408.22
2018-10-21T16:43:19.344Z,102401.49
2018-10-21T16:45:49.369Z,102406.27
2018-10-21T16:48:19.137Z,102401.16
2018-10-21T16:50:49.318Z,102401.40
2018-10-21T16:53:19.164Z,102398.70
2018-10-21T16:55:49.129Z,102403.77
2018-10-21T16:58:19.093Z,102403.47
2018-10-21T17:00:49.007Z,102405.30
2018-10-21T17:03:18.980Z,102406.36
2018-10-21T17:05:49.031Z,102407.11
2018-10-21T17:08:18.799Z,102411.61
2018-10-21T17:10:48.840Z,102409.45
2018-10-21T17:13:19.128Z,102409.69
2018-10-21T17:15:48.836Z,102417.41
2018-10-21T17:18:18.958Z,102410.95
2018-10-21T17:20:49.046Z,102413.03
2018-10-21T17:23:18.947Z,102415.38
2018-10-21T17:25:48.828Z,102421.50
2018-10-21T17:28:19.106Z,102413.18
2018-10-21T17:30:49.116Z,102419.04
2018-10-21T17:33:19.141Z,102423.83
2018-10-21T17:35:49.170Z,102418.19
2018-10-21T17:38:19.095Z,102425.12
2018-10-21T17:40:49.116Z,102429.13
2018-10-21T17:43:19.326Z,102434.17
2018-10-21T17:45:49.426Z,102433.61
2018-10-21T17:48:19.620Z,102437.02
2018-10-21T17:50:49.508Z,102435.94
2018-10-21T17:53:19.383Z,102439.64
2018-10-21T17:55:49.387Z,102435.58
2018-10-21T17:58:19.510Z,102431.01
2018-10-21T18:00:49.264Z,102435.52
2018-10-21T18:03:19.389Z,102438.93
2018-10-21T18:05:49.391Z,102439.19
2018-10-21T18:08:19.374Z,102438.61
2018-10-21T18:10:49.454Z,102434.56
2018-10-21T18:13:19.412Z,102434.00
2018-10-21T18:15:49.513Z,102434.25
2018-10-21T18:18:19.415Z,102440.92
2018-10-21T18:20:49.512Z,102431.78
2018-10-21T18:23:19.417Z,102439.48
2018-10-21T18:25:49.349Z,102439.98
2018-10-21T18:28:19.459Z,102442.29
2018-10-21T18:30:49.369Z,102442.48
2018-10-21T18:33:19.299Z,102443.00
2018-10-21T18:35:49.269Z,102445.91
2018-10-21T18:38:19.215Z,102445.34
2018-10-21T18:40:49.240Z,102441.61
2018-10-21T18:43:19.225Z,102436.56
2018-10-21T18:45:49.231Z,102437.34
2018-10-21T18:48:18.995Z,102437.60
2018-10-21T18:50:48.989Z,102444.27
2018-10-21T18:53:18.833Z,102438.11
2018-10-21T18:55:48.748Z,102434.10
2018-10-21T18:58:18.707Z,102432.20
2018-10-21T19:00:48.675Z,102431.94
2018-10-21T19:03:18.603Z,102432.14
2018-10-21T19:05:48.527Z,102428.33
2018-10-21T19:08:18.476Z,102433.34
2018-10-21T19:10:48.691Z,102428.02
2018-10-21T19:13:19.037Z,102422.61
2018-10-21T19:15:48.828Z,102427.70
2018-10-21T19:18:18.809Z,102428.46
2018-10-21T19:20:48.577Z,102430.34
2018-10-21T19:23:19.029Z,102433.48
2018-10-21T19:25:48.921Z,102438.47
2018-10-21T19:28:19.014Z,102434.13
2018-10-21T19:30:48.971Z,102436.23
2018-10-21T19:33:18.802Z,102441.05
2018-10-21T19:35:48.920Z,102439.09
2018-10-21T19:38:19.153Z,102437.77
2018-10-21T19:40:49.052Z,102439.91
2018-10-21T19:43:19.068Z,102438.81
2018-10-21T19:45:49.267Z,102436.91
2018-10-21T19:48:19.327Z,102440.59
2018-10-21T19:50:49.511Z,102438.17
2018-10-21T19:53:19.663Z,102441.30
2018-10-21T19:55:49.757Z,102443.42
2018-10-21T19:58:19.694Z,102438.86
2018-10-21T20:00:49.948Z,102444.03
2018-10-21T20:03:19.927Z,102436.16
2018-10-21T20:05:49.895Z,102438.06
2018-10-21T20:08:19.885Z,102440.23
2018-10-21T20:10:50.021Z,102438.31
2018-10-21T20:13:19.873Z,102447.55
2018-10-21T20:15:49.848Z,102445.66
2018-10-21T20:18:19.797Z,102445.16
2018-10-21T20:20:49.561Z,102442.98
2018-10-21T20:23:19.602Z,102444.34
2018-10-21T20:25:49.461Z,102444.34
2018-10-21T20:28:19.341Z,102437.66
2018-10-21T20:30:49.358Z,102437.48
2018-10-21T20:33:19.277Z,102441.91
2018-10-21T20:35:49.266Z,102431.34
2018-10-21T20:38:19.124Z,102429.50
2018-10-21T20:40:49.180Z,102432.86
2018-10-21T20:43:19.100Z,102433.52
2018-10-21T20:45:48.976Z,102443.98
2018-10-21T20:48:19.011Z,102444.07
2018-10-21T20:50:49.164Z,102439.66
2018-10-21T20:53:19.337Z,102440.08
2018-10-21T20:55:49.155Z,102443.70
2018-10-21T20:58:19.222Z,102445.70
2018-10-21T21:00:49.005Z,102446.06
2018-10-21T21:03:19.218Z,102451.00
2018-10-21T21:05:49.179Z,102453.72
2018-10-21T21:08:19.166Z,102449.73
2018-10-21T21:10:49.341Z,102450.91
2018-10-21T21:13:19.349Z,102455.11
2018-10-21T21:15:49.249Z,102451.33
2018-10-21T21:18:19.199Z,102445.88
2018-10-21T21:20:49.059Z,102456.34
2018-10-21T21:23:19.053Z,102458.48
2018-10-21T21:25:49.056Z,102466.84
2018-10-21T21:28:18.944Z,102464.86
2018-10-21T21:30:48.846Z,102465.85
2018-10-21T21:33:19.201Z,102465.61
2018-10-21T21:35:49.171Z,102470.91
2018-10-21T21:38:19.108Z,102473.34
2018-10-21T21:40:49.013Z,102472.07
2018-10-21T21:43:18.964Z,102470.59
2018-10-21T21:45:48.893Z,102464.89
2018-10-21T21:48:18.921Z,102465.22
2018-10-21T21:50:48.790Z,102467.46
2018-10-21T21:53:18.767Z,102468.40
2018-10-21T21:55:48.656Z,102470.13
2018-10-21T21:58:18.683Z,102469.73
2018-10-21T22:00:48.729Z,102473.94
2018-10-21T22:03:18.565Z,102474.21
2018-10-21T22:05:48.551Z,102465.31
2018-10-21T22:08:18.503Z,102469.48
2018-10-21T22:10:48.373Z,102466.72
2018-10-21T22:13:18.344Z,102464.08
2018-10-21T22:15:48.388Z,102463.81
2018-10-21T22:18:18.502Z,102457.58
2018-10-21T22:20:49.313Z,102467.31
2018-10-21T22:23:19.398Z,102462.38
2018-10-21T22:25:49.378Z,102458.38
2018-10-21T22:28:19.562Z,102455.14
2018-10-21T22:30:49.501Z,102453.42
2018-10-21T22:33:19.543Z,102454.92
2018-10-21T22:35:49.418Z,102451.41
2018-10-21T22:38:19.357Z,102458.39
2018-10-21T22:40:49.192Z,102449.80
2018-10-21T22:43:19.240Z,102465.00
2018-10-21T22:45:49.227Z,102461.72
2018-10-21T22:48:19.336Z,102457.15
2018-10-21T22:50:49.185Z,102456.66
2018-10-21T22:53:19.074Z,102459.71
2018-10-21T22:55:49.093Z,102462.16
2018-10-21T22:58:19.476Z,102467.19
2018-10-21T23:00:49.631Z,102466.20
2018-10-21T23:03:19.628Z,102474.01
2018-10-21T23:05:49.500Z,102474.60
2018-10-21T23:08:19.573Z,102474.16
2018-10-21T23:10:49.567Z,102475.57
2018-10-21T23:13:19.455Z,102476.43
2018-10-21T23:15:49.254Z,102479.97
2018-10-21T23:18:19.223Z,102476.29
2018-10-21T23:20:49.206Z,102470.14
2018-10-21T23:23:19.145Z,102475.79
2018-10-21T23:25:49.008Z,102476.89
2018-10-21T23:28:18.915Z,102482.83
2018-10-21T23:30:48.963Z,102477.80
2018-10-21T23:33:18.924Z,102483.97
2018-10-21T23:35:48.870Z,102484.53
2018-10-21T23:38:18.885Z,102485.03
2018-10-21T23:40:48.839Z,102483.13
2018-10-21T23:43:18.813Z,102487.45
2018-10-21T23:45:48.936Z,102488.55
2018-10-21T23:48:18.984Z,102491.30
2018-10-21T23:50:48.964Z,102493.77
2018-10-21T23:53:18.802Z,102484.17
2018-10-21T23:55:48.742Z,102483.67
2018-10-21T23:58:19.731Z,102477.30
